createdAt,value
2018-09-26T00:01:01.908Z,99.90
2018-09-26T00:03:37.641Z,99.90
2018-09-26T00:06:05.833Z,99.90
2018-09-26T00:08:33.980Z,99.90
2018-09-26T00:11:02.974Z,99.90
2018-09-26T00:13:31.132Z,99.90
2018-09-26T00:15:59.403Z,99.90
2018-09-26T00:18:27.536Z,99.90
2018-09-26T00:20:55.704Z,99.90
2018-09-26T00:23:23.845Z,99.90
2018-09-26T00:25:51.997Z,99.90
2018-09-26T00:28:20.128Z,99.90
2018-09-26T00:30:48.284Z,99.90
2018-09-26T00:33:16.450Z,99.90
2018-09-26T00:35:44.643Z,99.90
2018-09-26T00:38:12.757Z,99.90
2018-09-26T00:40:40.915Z,99.90
2018-09-26T00:43:09.065Z,99.90
2018-09-26T00:45:37.228Z,99.90
2018-09-26T00:48:05.417Z,99.90
2018-09-26T00:50:33.641Z,99.90
2018-09-26T00:53:01.849Z,99.90
2018-09-26T00:55:29.979Z,99.90
2018-09-26T00:57:58.137Z,99.90
2018-09-26T01:00:26.294Z,99.90
2018-09-26T01:02:54.432Z,99.90
2018-09-26T01:05:22.581Z,99.90
2018-09-26T01:07:50.744Z,99.90
2018-09-26T01:10:18.886Z,99.90
2018-09-26T01:12:47.032Z,99.90
2018-09-26T01:15:15.196Z,99.90
2018-09-26T01:17:43.397Z,99.90
2018-09-26T01:20:11.544Z,99.90
2018-09-26T01:22:39.701Z,99.90
2018-09-26T01:25:07.877Z,99.90
2018-09-26T01:27:36.028Z,99.90
2018-09-26T01:30:05.800Z,99.90
2018-09-26T01:32:34.191Z,99.90
2018-09-26T01:35:02.868Z,99.90
2018-09-26T01:37:31.021Z,99.90
2018-09-26T01:39:59.627Z,99.90
2018-09-26T01:42:28.025Z,99.90
2018-09-26T01:44:56.388Z,99.90
2018-09-26T01:47:24.537Z,99.90
2018-09-26T01:49:52.685Z,99.90
2018-09-26T01:54:49.357Z,99.90
2018-09-26T01:59:45.553Z,99.90
2018-09-26T02:07:10.400Z,99.90
2018-09-26T02:12:07.308Z,99.90
2018-09-26T02:14:35.445Z,99.90
2018-09-26T02:19:31.549Z,99.90
2018-09-26T02:21:59.704Z,99.90
2018-09-26T02:24:27.885Z,99.90
2018-09-26T02:26:56.055Z,99.90
2018-09-26T02:29:24.209Z,99.90
2018-09-26T02:31:52.351Z,99.90
2018-09-26T02:34:20.504Z,99.90
2018-09-26T02:36:48.643Z,99.90
2018-09-26T02:39:16.788Z,99.90
2018-09-26T02:41:44.940Z,99.90
2018-09-26T02:44:13.122Z,99.90
2018-09-26T02:49:09.356Z,99.90
2018-09-26T02:51:38.244Z,99.90
2018-09-26T02:54:07.232Z,99.90
2018-09-26T02:56:35.513Z,99.90
2018-09-26T02:59:03.653Z,99.90
2018-09-26T03:01:31.813Z,99.90
2018-09-26T03:03:59.951Z,99.90
2018-09-26T03:06:28.105Z,99.90
2018-09-26T03:08:56.255Z,99.90
2018-09-26T03:11:24.411Z,99.90
2018-09-26T03:13:52.557Z,99.90
2018-09-26T03:16:20.715Z,99.90
2018-09-26T03:18:48.861Z,99.90
2018-09-26T03:21:17.010Z,99.90
2018-09-26T03:23:45.144Z,99.90
2018-09-26T03:26:13.327Z,99.90
2018-09-26T03:28:41.478Z,99.90
2018-09-26T03:31:09.632Z,99.90
2018-09-26T03:33:37.823Z,99.90
2018-09-26T03:36:05.982Z,99.90
2018-09-26T03:38:34.149Z,99.90
2018-09-26T03:41:02.311Z,99.90
2018-09-26T03:43:30.513Z,99.90
2018-09-26T03:45:58.678Z,99.90
2018-09-26T03:48:26.938Z,99.90
2018-09-26T03:50:55.117Z,99.90
2018-09-26T03:53:23.269Z,99.90
2018-09-26T03:55:51.451Z,99.90
2018-09-26T03:58:19.609Z,99.90
2018-09-26T04:00:47.757Z,99.90
2018-09-26T04:03:15.954Z,99.90
2018-09-26T04:05:44.136Z,99.90
2018-09-26T04:08:12.299Z,99.90
2018-09-26T04:10:40.448Z,99.90
2018-09-26T04:13:08.664Z,99.90
2018-09-26T04:15:42.995Z,99.90
2018-09-26T04:18:11.229Z,99.90
2018-09-26T04:20:39.404Z,99.90
2018-09-26T04:23:07.565Z,99.90
2018-09-26T04:25:35.771Z,99.90
2018-09-26T04:28:03.943Z,99.90
2018-09-26T04:30:32.154Z,99.90
2018-09-26T04:33:00.462Z,99.90
2018-09-26T04:35:28.424Z,99.90
2018-09-26T04:37:56.588Z,99.90
2018-09-26T04:40:24.750Z,99.90
2018-09-26T04:42:52.921Z,99.90
2018-09-26T04:45:21.073Z,99.90
2018-09-26T04:47:49.244Z,99.90
2018-09-26T04:50:17.388Z,99.90
2018-09-26T04:52:45.765Z,99.90
2018-09-26T04:55:14.040Z,99.90
2018-09-26T04:57:42.200Z,99.90
2018-09-26T05:00:10.352Z,99.90
2018-09-26T05:02:38.516Z,99.90
2018-09-26T05:05:06.676Z,99.90
2018-09-26T05:07:35.222Z,99.90
2018-09-26T05:10:03.378Z,99.90
2018-09-26T05:12:31.524Z,99.90
2018-09-26T05:14:59.696Z,99.90
2018-09-26T05:17:27.873Z,99.90
2018-09-26T05:19:56.235Z,99.90
2018-09-26T05:22:24.511Z,99.90
2018-09-26T05:24:52.652Z,99.90
2018-09-26T05:27:20.829Z,99.90
2018-09-26T05:29:49.011Z,99.90
2018-09-26T05:32:17.213Z,99.90
2018-09-26T05:34:45.381Z,99.90
2018-09-26T05:37:13.943Z,99.90
2018-09-26T05:39:42.128Z,99.90
2018-09-26T05:42:10.291Z,99.90
2018-09-26T05:44:38.682Z,99.90
2018-09-26T05:47:07.157Z,99.90
2018-09-26T05:49:35.403Z,99.90
2018-09-26T05:52:03.805Z,99.90
2018-09-26T05:54:31.964Z,99.90
2018-09-26T05:57:00.166Z,99.90
2018-09-26T05:59:28.380Z,99.90
2018-09-26T06:01:56.544Z,99.90
2018-09-26T06:04:24.850Z,99.90
2018-09-26T06:06:53.033Z,99.90
2018-09-26T06:09:21.188Z,99.90
2018-09-26T06:11:49.351Z,99.90
2018-09-26T06:14:17.517Z,99.90
2018-09-26T06:16:45.703Z,99.90
2018-09-26T06:19:13.896Z,99.90
2018-09-26T06:21:42.057Z,99.90
2018-09-26T06:24:10.237Z,99.90
2018-09-26T06:26:38.410Z,99.90
2018-09-26T06:29:06.764Z,99.90
2018-09-26T06:31:34.969Z,99.90
2018-09-26T06:34:03.129Z,99.90
2018-09-26T06:36:31.291Z,99.90
2018-09-26T06:38:59.456Z,99.90
2018-09-26T06:41:27.602Z,99.90
2018-09-26T06:43:55.825Z,99.90
2018-09-26T06:46:24.034Z,99.90
2018-09-26T06:48:52.213Z,99.90
2018-09-26T06:51:20.360Z,99.90
2018-09-26T06:53:48.526Z,99.90
2018-09-26T06:56:16.680Z,99.90
2018-09-26T06:58:44.849Z,99.90
2018-09-26T07:01:12.981Z,99.90
2018-09-26T07:03:41.133Z,99.90
2018-09-26T07:06:09.295Z,99.90
2018-09-26T07:09:09.334Z,99.90
2018-09-26T07:11:37.505Z,99.90
2018-09-26T07:14:05.699Z,99.90
2018-09-26T07:16:34.756Z,99.90
2018-09-26T07:19:02.941Z,99.90
2018-09-26T07:21:31.113Z,99.90
2018-09-26T07:23:59.289Z,99.90
2018-09-26T07:26:27.465Z,99.90
2018-09-26T07:28:55.649Z,99.90
2018-09-26T07:31:23.848Z,99.90
2018-09-26T07:33:52.361Z,99.90
2018-09-26T07:36:20.546Z,99.90
2018-09-26T07:38:48.725Z,99.90
2018-09-26T07:41:16.885Z,99.90
2018-09-26T07:43:45.054Z,99.90
2018-09-26T07:46:13.238Z,99.90
2018-09-26T07:48:41.420Z,99.90
2018-09-26T07:51:09.678Z,99.90
2018-09-26T07:53:37.837Z,99.90
2018-09-26T07:56:06.051Z,99.90
2018-09-26T07:58:34.228Z,99.90
2018-09-26T08:01:02.372Z,99.90
2018-09-26T08:03:30.562Z,99.90
2018-09-26T08:05:58.741Z,99.90
2018-09-26T08:08:26.945Z,99.90
2018-09-26T08:10:55.237Z,99.90
2018-09-26T08:13:23.451Z,99.90
2018-09-26T08:15:51.628Z,99.90
2018-09-26T08:18:19.936Z,99.90
2018-09-26T08:20:47.979Z,99.90
2018-09-26T08:23:16.180Z,99.90
2018-09-26T08:25:44.532Z,99.90
2018-09-26T08:28:12.696Z,99.90
2018-09-26T08:30:40.902Z,99.90
2018-09-26T08:33:09.097Z,99.90
2018-09-26T08:35:37.276Z,99.90
2018-09-26T08:38:05.480Z,99.90
2018-09-26T08:40:33.628Z,99.90
2018-09-26T08:43:01.907Z,99.90
2018-09-26T08:45:30.081Z,99.90
2018-09-26T08:47:58.548Z,99.90
2018-09-26T08:50:26.737Z,99.90
2018-09-26T08:52:54.935Z,99.90
2018-09-26T08:55:23.131Z,99.90
2018-09-26T08:57:51.289Z,99.90
2018-09-26T09:00:24.973Z,99.90
2018-09-26T09:05:21.089Z,99.90
2018-09-26T09:07:49.224Z,99.90
2018-09-26T09:10:17.405Z,99.90
2018-09-26T09:12:45.560Z,99.90
2018-09-26T09:15:13.745Z,99.90
2018-09-26T09:17:42.194Z,99.90
2018-09-26T09:20:10.443Z,99.90
2018-09-26T09:22:38.590Z,99.90
2018-09-26T09:25:06.841Z,99.90
2018-09-26T09:27:35.160Z,99.90
2018-09-26T09:30:03.328Z,99.90
2018-09-26T09:32:31.520Z,99.90
2018-09-26T09:34:59.690Z,99.90
2018-09-26T09:37:28.177Z,99.90
2018-09-26T09:39:56.373Z,99.90
2018-09-26T09:42:24.572Z,99.90
2018-09-26T09:44:52.751Z,99.90
2018-09-26T09:47:20.909Z,99.90
2018-09-26T09:49:49.102Z,99.90
2018-09-26T09:52:17.276Z,99.90
2018-09-26T09:54:45.445Z,99.90
2018-09-26T09:57:13.622Z,99.80
2018-09-26T09:59:42.190Z,99.40
2018-09-26T10:02:10.402Z,99.70
2018-09-26T10:04:38.522Z,98.70
2018-09-26T10:07:06.689Z,98.10
2018-09-26T10:09:34.857Z,97.00
2018-09-26T10:12:03.025Z,95.40
2018-09-26T10:14:31.254Z,95.10
2018-09-26T10:16:59.417Z,96.00
2018-09-26T10:19:27.589Z,94.20
2018-09-26T10:21:55.772Z,93.70
2018-09-26T10:24:23.959Z,93.90
2018-09-26T10:26:52.124Z,92.90
2018-09-26T10:29:20.306Z,92.70
2018-09-26T10:31:48.504Z,90.90
2018-09-26T10:34:16.661Z,90.00
2018-09-26T10:36:44.841Z,89.80
2018-09-26T17:41:20.930Z,99.90
2018-09-26T17:43:49.155Z,99.90
2018-09-26T17:46:17.456Z,99.90
2018-09-26T17:51:05.335Z,99.90
2018-09-26T17:53:33.517Z,99.90
2018-09-26T17:56:01.762Z,99.90
2018-09-26T17:58:29.988Z,99.90
2018-09-26T18:00:58.225Z,99.90
2018-09-26T18:03:26.426Z,99.90
2018-09-26T18:05:54.597Z,99.90
2018-09-26T18:08:22.826Z,99.90
2018-09-26T18:10:51.101Z,99.90
2018-09-26T18:13:20.192Z,99.90
2018-09-26T18:15:48.389Z,99.90
2018-09-26T18:18:16.592Z,99.90
2018-09-26T18:20:44.812Z,99.90
2018-09-26T18:23:13.188Z,99.90
2018-09-26T18:25:41.372Z,99.90
2018-09-26T18:28:09.592Z,99.90
2018-09-26T18:30:37.888Z,99.90
2018-09-26T18:33:06.146Z,99.90
2018-09-26T18:35:34.438Z,99.90
2018-09-26T18:38:04.063Z,99.90
2018-09-26T18:40:32.309Z,99.90
2018-09-26T18:43:00.621Z,99.90
2018-09-26T18:45:29.019Z,99.90
2018-09-26T18:47:57.263Z,99.90
2018-09-26T18:50:25.546Z,99.90
2018-09-26T18:52:53.792Z,99.90
2018-09-26T18:55:22.077Z,99.90
2018-09-26T18:57:50.265Z,99.90
2018-09-26T19:00:19.472Z,99.90
2018-09-26T19:02:47.695Z,99.90
2018-09-26T19:05:15.954Z,99.90
2018-09-26T19:07:44.380Z,99.90
2018-09-26T19:10:13.117Z,99.90
2018-09-26T19:12:41.383Z,99.90
2018-09-26T19:15:09.813Z,99.90
2018-09-26T19:17:38.090Z,99.90
2018-09-26T19:20:06.347Z,99.90
2018-09-26T19:22:34.674Z,99.90
2018-09-26T19:25:02.937Z,99.90
2018-09-26T19:27:31.197Z,99.90
2018-09-26T19:29:59.554Z,99.90
2018-09-26T19:32:27.911Z,99.90
2018-09-26T19:34:56.275Z,99.90
2018-09-26T19:37:24.558Z,99.90
2018-09-26T19:39:53.051Z,99.90
2018-09-26T19:42:47.565Z,99.90
2018-09-26T19:45:15.942Z,99.90
2018-09-26T19:47:45.087Z,99.90
2018-09-26T19:50:13.509Z,99.90
2018-09-26T19:52:41.811Z,99.90
2018-09-26T19:55:10.077Z,99.90
2018-09-26T19:57:38.535Z,99.90
2018-09-26T20:00:07.422Z,99.90
2018-09-26T20:02:35.611Z,99.90
2018-09-26T20:05:03.781Z,99.90
2018-09-26T20:07:32.003Z,99.90
2018-09-26T20:10:00.241Z,99.90
2018-09-26T20:12:28.461Z,99.90
2018-09-26T20:14:56.753Z,99.90
2018-09-26T20:17:25.054Z,99.90
2018-09-26T20:19:53.261Z,99.90
2018-09-26T20:22:21.680Z,99.90
2018-09-26T20:24:50.002Z,99.90
2018-09-26T20:27:18.317Z,99.90
2018-09-26T20:29:46.567Z,99.90
2018-09-26T20:32:14.694Z,99.90
2018-09-26T20:34:43.090Z,99.90
2018-09-26T20:37:11.384Z,99.90
2018-09-26T20:39:39.536Z,99.90
2018-09-26T20:42:07.736Z,99.90
2018-09-26T20:44:36.063Z,99.90
2018-09-26T20:47:04.323Z,99.90
2018-09-26T20:49:32.788Z,99.90
2018-09-26T20:52:01.069Z,99.90
2018-09-26T20:54:29.623Z,99.90
2018-09-26T20:56:57.917Z,99.90
2018-09-26T20:59:26.887Z,99.90
2018-09-26T21:01:55.168Z,99.90
2018-09-26T21:04:23.614Z,99.90
2018-09-26T21:06:51.804Z,99.90
2018-09-26T21:09:20.059Z,99.90
2018-09-26T21:11:49.357Z,99.90
2018-09-26T21:14:17.525Z,99.90
2018-09-26T21:16:45.699Z,99.90
2018-09-26T21:19:13.949Z,99.90
2018-09-26T21:21:42.148Z,99.90
2018-09-26T21:24:10.386Z,99.90
2018-09-26T21:26:38.588Z,99.90
2018-09-26T21:29:06.857Z,99.90
2018-09-26T21:31:35.091Z,99.90
2018-09-26T21:34:03.285Z,99.90
2018-09-26T21:36:31.541Z,99.90
2018-09-26T21:38:59.796Z,99.90
2018-09-26T21:41:28.001Z,99.90
2018-09-26T21:43:56.213Z,99.90
2018-09-26T21:46:24.450Z,99.90
2018-09-26T21:48:52.675Z,99.90
2018-09-26T21:51:20.917Z,99.90
2018-09-26T21:53:49.101Z,99.90
2018-09-26T21:56:17.256Z,99.90
2018-09-26T21:58:45.443Z,99.90
2018-09-26T22:01:15.405Z,99.90
2018-09-26T22:03:44.082Z,99.90
2018-09-26T22:06:12.672Z,99.90
2018-09-26T22:08:41.724Z,99.90
2018-09-26T22:11:09.982Z,99.90
2018-09-26T22:13:38.300Z,99.90
2018-09-26T22:16:06.494Z,99.90
2018-09-26T22:18:34.725Z,99.90
2018-09-26T22:21:02.912Z,99.90
2018-09-26T22:23:31.127Z,99.90
2018-09-26T22:25:59.385Z,99.90
2018-09-26T22:28:28.674Z,99.90
2018-09-26T22:30:56.844Z,99.90
2018-09-26T22:33:25.310Z,99.90
2018-09-26T22:35:53.504Z,99.90
2018-09-26T22:38:21.783Z,99.90
2018-09-26T22:40:50.891Z,99.90
2018-09-26T22:43:19.496Z,99.90
2018-09-26T22:45:47.677Z,99.90
2018-09-26T22:48:15.866Z,99.90
2018-09-26T22:50:44.077Z,99.90
2018-09-26T22:53:12.248Z,99.90
2018-09-26T22:55:40.492Z,99.90
2018-09-26T22:58:08.710Z,99.90
2018-09-26T23:00:36.893Z,99.90
2018-09-26T23:03:05.081Z,99.90
2018-09-26T23:05:33.265Z,99.90
2018-09-26T23:08:01.542Z,99.90
2018-09-26T23:10:29.737Z,99.90
2018-09-26T23:12:57.965Z,99.90
2018-09-26T23:15:26.149Z,99.90
2018-09-26T23:17:54.342Z,99.90
2018-09-26T23:20:22.517Z,99.90
2018-09-26T23:22:50.701Z,99.90
2018-09-26T23:25:18.944Z,99.90
2018-09-26T23:27:47.152Z,99.90
2018-09-26T23:30:15.331Z,99.90
2018-09-26T23:32:43.566Z,99.90
2018-09-26T23:35:11.764Z,99.90
2018-09-26T23:37:39.954Z,99.90
2018-09-26T23:40:08.170Z,99.90
2018-09-26T23:42:36.372Z,99.90
2018-09-26T23:45:04.609Z,99.90
2018-09-26T23:47:32.828Z,99.90
2018-09-26T23:50:01.245Z,99.90
2018-09-26T23:52:29.485Z,99.90
2018-09-26T23:54:57.658Z,99.90
2018-09-26T23:57:25.893Z,99.90
2018-09-26T23:59:54.130Z,99.90
